Time;durP1;ratioP1;P1;durP2;ratioP2;P2;SDS_P1;SDS_P2;PMS_P1;PMS_P2;Temp;Humidity;BMP_temperature;BMP_pressure;BME280_temperature;BME280_humidity;BME280_pressure;Samples;Min_cycle;Max_cycle;Signal;HPM_P1;HPM_P2
2023/08/23 00:04:15;;;;;;;2.08;1.08;;;;;;;;;;20638466;28;20257;-72
2023/08/23 00:14:16;;;;;;;2.75;1.02;;;;;;;;;;20637652;28;20235;-72
2023/08/23 00:24:19;;;;;;;2.67;1.17;;;;;;;;;;20654104;28;20575;-72
2023/08/23 00:34:21;;;;;;;1.92;1.05;;;;;;;;;;20639749;28;20237;-72
2023/08/23 00:44:23;;;;;;;1.55;1.25;;;;;;;;;;20631992;28;20285;-73
2023/08/23 00:54:24;;;;;;;2.17;1.25;;;;;;;;;;20650158;28;20284;-72
2023/08/23 01:04:28;;;;;;;2.15;1.20;;;;;;;;;;20626800;28;20229;-73
2023/08/23 01:14:34;;;;;;;2.10;1.20;;;;;;;;;;20647409;28;20291;-73
2023/08/23 01:24:36;;;;;;;3.50;1.45;;;;;;;;;;20627328;28;20224;-73
2023/08/23 01:34:41;;;;;;;2.38;1.50;;;;;;;;;;20632231;28;20226;-73
2023/08/23 01:44:43;;;;;;;1.80;1.30;;;;;;;;;;20658780;28;20278;-73
2023/08/23 01:54:45;;;;;;;2.92;1.30;;;;;;;;;;20611656;28;20239;-73
2023/08/23 02:04:46;;;;;;;2.25;1.40;;;;;;;;;;20660645;28;20694;-73
2023/08/23 02:14:50;;;;;;;2.70;1.40;;;;;;;;;;20672048;28;20256;-72
2023/08/23 02:24:51;;;;;;;3.20;1.65;;;;;;;;;;20646921;28;20621;-72
2023/08/23 02:34:53;;;;;;;3.17;1.60;;;;;;;;;;20645552;28;20235;-72
2023/08/23 02:55:06;;;;;;;2.63;1.55;;;30.10;99.90;;;;;;20741661;28;20236;-69
2023/08/23 03:05:08;;;;;;;5.90;1.85;;;;;;;;;;20719253;28;20241;-69
2023/08/23 03:15:10;;;;;;;2.88;1.58;;;;;;;;;;20734763;28;20234;-69
2023/08/23 03:25:12;;;;;;;2.70;1.65;;;;;;;;;;20729838;28;20235;-69
2023/08/23 03:35:14;;;;;;;3.15;1.90;;;;;;;;;;20720909;28;20210;-70
2023/08/23 03:45:17;;;;;;;3.33;1.63;;;;;;;;;;20710676;28;20286;-70
2023/08/23 03:55:19;;;;;;;2.78;1.70;;;;;;;;;;20736107;28;20344;-71
2023/08/23 04:05:23;;;;;;;2.17;1.40;;;;;;;;;;20720029;28;20237;-72
2023/08/23 04:15:24;;;;;;;5.03;1.73;;;;;;;;;;20699359;28;20308;-72
2023/08/23 04:25:26;;;;;;;4.28;1.80;;;;;;;;;;20752277;28;20244;-72
2023/08/23 04:35:28;;;;;;;3.08;2.03;;;;;;;;;;20705224;28;20225;-72
2023/08/23 04:45:31;;;;;;;2.70;1.88;;;;;;;;;;20733649;28;20286;-72
2023/08/23 04:55:34;;;;;;;2.33;1.80;;;;;;;;;;20753291;28;20261;-72
2023/08/23 05:05:36;;;;;;;2.97;2.00;;;;;;;;;;20702662;28;20769;-71
2023/08/23 05:15:38;;;;;;;4.97;2.10;;;;;;;;;;20734758;28;20221;-71
2023/08/23 05:25:40;;;;;;;3.85;2.00;;;;;;;;;;20702497;28;20252;-71
2023/08/23 05:35:44;;;;;;;3.17;1.98;;;;;;;;;;20717085;28;20268;-71
2023/08/23 05:45:47;;;;;;;3.47;1.92;;;;;;;;;;20713136;28;20220;-71
2023/08/23 05:55:50;;;;;;;3.13;1.70;;;;;;;;;;20728411;28;20280;-71
2023/08/23 06:05:55;;;;;;;2.58;1.40;;;25.10;99.90;;;;;;20714696;28;20687;-71
2023/08/23 06:15:57;;;;;;;2.53;1.60;;;;;;;;;;20729697;28;20698;-70
2023/08/23 06:26:00;;;;;;;3.75;1.70;;;;;;;;;;20763415;28;20590;-66
2023/08/23 06:36:05;;;;;;;5.30;1.70;;;;;;;;;;20730842;28;20209;-66
2023/08/23 06:46:07;;;;;;;2.50;1.42;;;;;;;;;;20725809;28;20264;-67
2023/08/23 06:56:11;;;;;;;4.10;1.63;;;25.80;99.90;;;;;;20728433;28;20260;-66
2023/08/23 07:06:14;;;;;;;4.47;1.40;;;25.90;99.90;;;;;;20744399;28;20267;-67
2023/08/23 07:16:16;;;;;;;3.13;1.40;;;;;;;;;;20760106;28;20274;-67
2023/08/23 07:26:18;;;;;;;2.22;1.40;;;;;;;;;;20713876;28;20228;-69
2023/08/23 07:36:20;;;;;;;1.73;1.10;;;;;;;;;;20707428;28;20293;-70
2023/08/23 07:46:24;;;;;;;3.20;1.40;;;;;;;;;;20723881;28;20585;-69
2023/08/23 07:56:26;;;;;;;2.55;1.30;;;;;;;;;;20703334;28;20280;-70
2023/08/23 08:06:27;;;;;;;6.38;1.80;;;;;;;;;;20716137;28;20225;-70
2023/08/23 08:16:29;;;;;;;2.08;1.00;;;;;;;;;;20721468;28;20214;-70
2023/08/23 08:26:31;;;;;;;2.97;1.80;;;;;;;;;;20719583;28;20224;-68
2023/08/23 08:36:33;;;;;;;2.15;1.10;;;;;;;;;;20747400;28;20312;-68
2023/08/23 08:46:35;;;;;;;1.67;1.13;;;;;;;;;;20763253;22;20299;-70
2023/08/23 08:56:37;;;;;;;3.55;1.33;;;;;;;;;;20881919;28;20269;-75
2023/08/23 09:06:40;;;;;;;3.40;1.23;;;;;;;;;;20881452;28;20284;-71
2023/08/23 09:16:41;;;;;;;2.97;1.10;;;;;;;;;;20897111;28;20219;-71
2023/08/23 09:26:43;;;;;;;1.98;1.15;;;;;;;;;;20892572;28;20220;-72
2023/08/23 09:36:46;;;;;;;2.40;0.88;;;;;;;;;;20885858;28;20216;-73
2023/08/23 09:46:51;;;;;;;3.47;1.00;;;28.80;99.90;;;;;;20909714;28;20236;-72
2023/08/23 09:56:53;;;;;;;2.67;1.05;;;;;;;;;;20894928;28;20277;-72
2023/08/23 10:06:55;;;;;;;2.22;1.00;;;;;;;;;;20876121;28;20519;-72
2023/08/23 10:16:57;;;;;;;2.10;0.90;;;;;;;;;;20901336;28;20667;-74
2023/08/23 10:27:05;;;;;;;1.63;0.85;;;;;;;;;;20887129;28;20236;-73
2023/08/23 10:37:33;;;;;;;3.03;0.80;;;;;;;;;;20907607;28;20217;-71
2023/08/23 10:47:36;;;;;;;2.05;1.00;;;;;;;;;;20916405;28;20220;-73
2023/08/23 10:57:37;;;;;;;1.90;0.80;;;;;;;;;;20906854;28;20282;-73
2023/08/23 11:07:40;;;;;;;2.38;0.80;;;;;;;;;;20905885;28;20337;-73
2023/08/23 11:17:42;;;;;;;1.48;0.98;;;;;;;;;;20903542;28;20209;-73
2023/08/23 11:27:44;;;;;;;1.92;1.10;;;;;;;;;;20904823;28;20230;-74
2023/08/23 11:37:49;;;;;;;1.35;0.73;;;31.10;99.90;;;;;;20902453;28;20230;-73
2023/08/23 11:47:54;;;;;;;2.53;1.00;;;31.10;99.90;;;;;;20917705;28;20264;-73
2023/08/23 11:57:56;;;;;;;1.52;0.77;;;;;;;;;;20904811;28;20222;-73
2023/08/23 12:07:58;;;;;;;2.22;0.82;;;;;;;;;;20903906;28;20287;-74
2023/08/23 12:17:59;;;;;;;2.60;0.75;;;;;;;;;;20896599;28;20268;-73
2023/08/23 12:28:01;;;;;;;1.17;0.82;;;;;;;;;;20902058;28;20590;-74
2023/08/23 12:38:03;;;;;;;2.28;0.90;;;;;;;;;;20902221;28;20291;-71
2023/08/23 12:48:05;;;;;;;1.90;0.75;;;;;;;;;;20912069;28;20229;-74
2023/08/23 12:58:06;;;;;;;1.58;0.70;;;;;;;;;;20899170;28;20214;-74
2023/08/23 13:08:08;;;;;;;2.67;0.85;;;;;;;;;;20891701;28;20214;-73
2023/08/23 13:18:10;;;;;;;1.15;0.70;;;;;;;;;;20892920;28;20214;-73
2023/08/23 13:28:11;;;;;;;1.23;0.80;;;;;;;;;;20888216;28;20222;-75
2023/08/23 13:38:14;;;;;;;1.05;0.60;;;;;;;;;;20905206;28;20294;-73
2023/08/23 13:48:16;;;;;;;1.63;0.80;;;;;;;;;;20909177;28;20214;-73
2023/08/23 13:58:18;;;;;;;0.93;0.60;;;;;;;;;;20877077;28;20242;-73
2023/08/23 14:08:20;;;;;;;1.88;0.85;;;;;;;;;;20909393;28;20325;-73
2023/08/23 14:18:21;;;;;;;1.08;0.82;;;;;;;;;;20912429;28;20245;-73
2023/08/23 14:28:23;;;;;;;2.28;0.93;;;;;;;;;;20899295;28;20770;-74
2023/08/23 14:38:24;;;;;;;1.75;0.75;;;;;;;;;;20905422;28;20240;-73
2023/08/23 14:48:26;;;;;;;0.95;0.55;;;;;;;;;;20919724;28;20287;-73
2023/08/23 15:21:27;;;;;;;1.48;0.73;;;;;;;;;;20813515;28;20284;-85
2023/08/23 15:31:32;;;;;;;0.65;0.52;;;;;;;;;;20803775;28;20261;-84
2023/08/23 15:41:34;;;;;;;0.93;0.60;;;;;;;;;;20824222;28;20281;-86
2023/08/23 15:51:38;;;;;;;0.75;0.50;;;;;;;;;;20815678;28;20235;-84
2023/08/23 16:01:42;;;;;;;2.80;0.80;;;;;;;;;;20847676;22;20221;-73
2023/08/23 16:11:44;;;;;;;2.17;0.82;;;;;;;;;;20979302;28;20181;-74
2023/08/23 16:21:46;;;;;;;1.10;0.40;;;;;;;;;;20969757;28;20472;-77
2023/08/23 16:31:48;;;;;;;1.10;0.60;;;;;;;;;;20967175;28;20259;-73
2023/08/23 16:41:49;;;;;;;2.10;0.60;;;;;;;;;;20966860;28;20270;-74
2023/08/23 16:51:52;;;;;;;0.85;0.50;;;;;;;;;;20962892;28;20267;-73
2023/08/23 17:01:53;;;;;;;0.70;0.43;;;;;;;;;;20963614;28;20233;-72
2023/08/23 17:11:55;;;;;;;1.80;0.50;;;;;;;;;;20987775;28;20266;-70
2023/08/23 17:21:57;;;;;;;2.03;0.95;;;;;;;;;;20959575;28;20251;-70
2023/08/23 17:31:58;;;;;;;1.35;0.60;;;30.70;94.40;;;;;;20979944;28;20232;-71
2023/08/23 17:42:00;;;;;;;2.00;0.60;;;;;;;;;;20959574;28;20252;-71
2023/08/23 17:52:02;;;;;;;4.45;0.60;;;;;;;;;;20965505;28;20221;-73
2023/08/23 18:02:04;;;;;;;0.98;0.50;;;;;;;;;;20927987;28;20286;-72
2023/08/23 18:12:06;;;;;;;8.80;1.58;;;;;;;;;;20974685;28;20225;-73
2023/08/23 18:22:07;;;;;;;4.68;1.70;;;;;;;;;;20980865;28;20229;-71
2023/08/23 18:32:10;;;;;;;2.83;0.70;;;30.10;93.10;;;;;;20958333;28;20247;-71
2023/08/23 18:42:11;;;;;;;6.72;1.13;;;;;;;;;;20992440;28;20221;-70
2023/08/23 18:52:13;;;;;;;7.90;1.98;;;;;;;;;;20990423;28;20225;-72
2023/08/23 19:02:15;;;;;;;1.92;0.60;;;;;;;;;;20966139;28;20221;-71
2023/08/23 19:12:17;;;;;;;1.70;0.63;;;;;;;;;;20983584;28;20221;-71
2023/08/23 19:22:19;;;;;;;4.55;0.85;;;;;;;;;;20982632;28;20217;-71
2023/08/23 19:32:22;;;;;;;2.38;0.80;;;;;;;;;;20986475;28;20265;-71
2023/08/23 19:42:24;;;;;;;4.78;1.27;;;;;;;;;;20933591;28;20229;-72
2023/08/23 19:52:26;;;;;;;10.77;1.75;;;;;;;;;;20979520;28;20213;-72
2023/08/23 20:02:27;;;;;;;5.40;1.10;;;;;;;;;;20981979;28;20546;-73
2023/08/23 20:12:29;;;;;;;2.15;0.80;;;;;;;;;;20946262;28;20705;-72
2023/08/23 20:22:31;;;;;;;4.28;1.08;;;;;;;;;;20948574;28;20232;-71
2023/08/23 20:32:32;;;;;;;1.85;0.75;;;;;;;;;;20982938;28;20211;-71
2023/08/23 20:42:34;;;;;;;1.25;0.75;;;;;;;;;;20983467;28;20760;-71
2023/08/23 20:52:36;;;;;;;3.22;0.60;;;;;;;;;;20996920;22;20585;-68
2023/08/23 21:02:38;;;;;;;3.95;1.10;;;;;;;;;;20898616;28;20660;-68
2023/08/23 21:12:40;;;;;;;3.70;0.80;;;;;;;;;;20889306;28;20285;-68
2023/08/23 21:22:42;;;;;;;3.05;0.80;;;;;;;;;;20939478;28;20239;-68
2023/08/23 21:32:44;;;;;;;5.05;0.95;;;;;;;;;;20894618;28;20332;-68
2023/08/23 21:42:46;;;;;;;1.15;0.70;;;;;;;;;;20887255;28;20299;-68
2023/08/23 21:52:48;;;;;;;2.58;0.90;;;;;;;;;;20884808;28;20233;-68
2023/08/23 22:02:50;;;;;;;2.60;0.75;;;;;;;;;;20884951;28;20209;-68
2023/08/23 22:12:52;;;;;;;2.03;0.90;;;;;;;;;;20901472;28;20232;-68
2023/08/23 22:22:54;;;;;;;3.70;0.80;;;;;;;;;;20926857;28;20846;-68
2023/08/23 22:32:56;;;;;;;2.47;0.98;;;;;;;;;;20968855;28;20228;-68
2023/08/23 22:42:58;;;;;;;3.88;1.05;;;;;;;;;;20945250;28;20217;-68
2023/08/23 22:53:00;;;;;;;3.15;0.90;;;;;;;;;;20927921;28;20385;-68
2023/08/23 23:03:02;;;;;;;1.77;0.90;;;;;;;;;;20940797;28;20232;-68
2023/08/23 23:13:04;;;;;;;1.90;1.00;;;;;;;;;;20894728;28;20295;-68
2023/08/23 23:23:06;;;;;;;4.65;0.82;;;;;;;;;;20875807;28;20212;-68
2023/08/23 23:33:07;;;;;;;2.03;0.98;;;;;;;;;;20910301;28;20236;-68
2023/08/23 23:43:09;;;;;;;2.17;0.90;;;;;;;;;;20916356;28;20628;-68
2023/08/23 23:53:11;;;;;;;1.75;1.02;;;;;;;;;;20910227;28;20281;-68
